x

South Bass Island, Oh (sbio1) Weather Station

6:00am - Sun 25th Jun 2017 All times are CDT. -5 hours from GMT.

  • Wind
    17mph, 18mph gusts
  • Air Temp 65°f
  • Sea Pressure 1016.1mb
  • South Bass Island, Oh
  • South Bass Island, Oh

More Historic Weather Station data

Upgrade to MSW Pro to gain access to the past 30 days of data for over 8000 Wavebouys and Weather Stations around the globe.

Join Pro

Comparision Forecast

View Surf forecast
   
Sun 06/25 6:00am 17 18 mph 1016.1mb 65f
5:00am 18 20 mph 1015.6mb 65f
4:00am 20 21 mph 1015.3mb 65f
3:00am 17 20 mph 1015.5mb 66f
2:00am 21 22 mph 1015.9mb 68f
1:00am 16 17 mph 1015.9mb 69f
12:00am 22 24 mph 1015.8mb 69f
Sat 06/24 11:00pm 29 30 mph 1015.5mb 70f
10:00pm 28 31 mph 1015.3mb 71f
9:00pm 23 26 mph 1014.4mb 71f
8:00pm 24 28 mph 1013.6mb 72f
7:00pm 25 29 mph 1013mb 73f
6:00pm 23 26 mph 1012.5mb 74f
5:00pm 24 25 mph 1012mb 75f
4:00pm 22 24 mph 1012.1mb 74f
3:00pm 16 18 mph 1011.9mb 74f
2:00pm 18 21 mph 1011.9mb 74f
1:00pm 20 22 mph 1012.2mb 74f
12:00pm 18 22 mph 1011.8mb 73f
11:00am 17 20 mph 1011.3mb 72f
10:00am 14 15 mph 1011mb 70f
9:00am 16 18 mph 1010.9mb 68f
8:00am 21 22 mph 1010.4mb 68f
7:00am 18 21 mph 1009.7mb 68f
6:00am 17 18 mph 1009.4mb 66f
5:00am 18 21 mph 1008.5mb 67f
4:00am 18 20 mph 1007.7mb 68f
3:00am 17 18 mph 1007.4mb 69f
2:00am 20 23 mph 1007.2mb 70f
1:00am 18 20 mph 1006.9mb 70f
12:00am 20 22 mph 1006.6mb 71f
Fri 06/23 11:00pm 23 24 mph 1006mb 72f
10:00pm 20 22 mph 1005.4mb 73f
9:00pm 13 14 mph 1004.4mb 71f
8:00pm 13 14 mph 1003.8mb 72f
7:00pm 17 18 mph 1003.3mb 72f
6:00pm 21 23 mph 1003.1mb 72f
5:00pm 22 24 mph 1002.6mb 73f
4:00pm 26 30 mph 1002.4mb 74f
3:00pm 24 28 mph 1002.2mb 73f
2:00pm 24 28 mph 1002.5mb 73f
1:00pm 16 17 mph 1002.6mb 73f
12:00pm 14 17 mph 1001.2mb 74f
11:00am 13 14 mph 1002.1mb 73f
10:00am 15 16 mph 1002.7mb 73f
9:00am 15 16 mph 1003.5mb 72f
8:00am 18 22 mph 1003.3mb 72f
7:00am 11 17 mph 1003.4mb 71f
6:00am 14 18 mph 1003.9mb 71f
5:00am 15 18 mph 1004.6mb 71f
4:00am 18 25 mph 1004.8mb 73f
3:00am 20 23 mph 1005.7mb 73f
2:00am 15 23 mph 1007mb 74f
1:00am 13 20 mph 1007.8mb 74f
12:00am 14 21 mph 1008.5mb 75f
Thu 06/22 11:00pm 21 24 mph 1008.8mb 77f
10:00pm 15 20 mph 1009.5mb 78f
9:00pm 11 14 mph 1009.7mb 78f
8:00pm 22 25 mph 1009.3mb 79f
7:00pm 8 8 mph 1008.9mb 78f
6:00pm 11 13 mph 1009.3mb 75f
5:00pm 15 18 mph 1009.3mb 80f
4:00pm 10 11 mph 1010.1mb 82f
3:00pm 14 17 mph 1010.4mb 82f
2:00pm 13 15 mph 1011.2mb 77f
1:00pm 13 15 mph 1011.8mb 77f
12:00pm 11 14 mph 1013.2mb 75f
11:00am 15 16 mph 1013.8mb 75f
10:00am 16 17 mph 1013.2mb 76f
9:00am 10 10 mph 1013.2mb 74f
8:00am 6 7 mph 1013.3mb 73f
7:00am 7 11 mph 1013.1mb 72f
6:00am 11 16 mph 1012.8mb 70f
5:00am 15 17 mph 1013.5mb 70f
4:00am 13 15 mph 1013.9mb 70f
3:00am 13 16 mph 1013.9mb 69f
2:00am 13 15 mph 1014.1mb 70f
1:00am 13 14 mph 1014.6mb 70f
12:00am 13 14 mph 1014.8mb 70f
Wed 06/21 11:00pm 13 15 mph 1014.9mb 70f
10:00pm 14 16 mph 1014.8mb 69f
9:00pm 11 14 mph 1014.7mb 69f
8:00pm 11 14 mph 1014.2mb 70f
7:00pm 7 10 mph 1014.4mb 70f
6:00pm 7 8 mph 1014.4mb 71f
5:00pm 5 8 mph 1015mb 72f
4:00pm 3 7 mph 1015mb 71f
3:00pm  -  1 mph 1015.3mb 71f
2:00pm  -  2 mph 1015.7mb 70f
1:00pm 2 3 mph 1015.8mb 69f